Time;durP1;ratioP1;P1;durP2;ratioP2;P2;SDS_P1;SDS_P2;PMS_P1;PMS_P2;Temp;Humidity;BMP_temperature;BMP_pressure;BME280_temperature;BME280_humidity;BME280_pressure;Samples;Min_cycle;Max_cycle;Signal;HPM_P1;HPM_P2
2021/09/16 00:01:28;;;;;;;1.53;1.00;;;17.30;98.20;;;;;;4949494;28;20497;-79
2021/09/16 00:03:57;;;;;;;1.50;1.00;;;17.20;98.20;;;;;;4960649;28;20860;-79
2021/09/16 00:06:23;;;;;;;1.60;1.00;;;17.20;98.20;;;;;;4945372;28;20481;-79
2021/09/16 00:08:50;;;;;;;1.50;0.97;;;17.20;98.20;;;;;;4956883;28;20467;-79
2021/09/16 00:11:17;;;;;;;1.53;0.90;;;17.20;98.20;;;;;;4945656;28;20564;-79
2021/09/16 00:13:44;;;;;;;1.50;0.90;;;17.20;98.20;;;;;;4961275;28;20867;-79
2021/09/16 00:16:11;;;;;;;1.53;0.90;;;17.10;98.20;;;;;;4946567;28;20478;-79
2021/09/16 00:18:38;;;;;;;1.57;0.90;;;17.10;98.20;;;;;;4964084;28;20502;-79
2021/09/16 00:21:06;;;;;;;1.50;1.00;;;17.00;98.20;;;;;;4933855;28;20468;-79
2021/09/16 00:23:33;;;;;;;1.53;0.90;;;17.00;98.20;;;;;;4959778;28;20860;-80
2021/09/16 00:26:00;;;;;;;1.50;0.93;;;16.90;98.20;;;;;;4941262;28;20464;-79
2021/09/16 00:28:27;;;;;;;1.50;1.00;;;16.90;98.20;;;;;;4960806;28;20486;-79
2021/09/16 00:30:54;;;;;;;1.50;0.90;;;16.90;98.20;;;;;;4935756;28;20931;-80
2021/09/16 00:33:20;;;;;;;1.57;1.00;;;16.90;98.20;;;;;;4963277;28;20853;-79
2021/09/16 00:35:47;;;;;;;1.50;1.00;;;16.80;98.20;;;;;;4940969;28;20498;-79
2021/09/16 00:38:15;;;;;;;1.50;1.00;;;16.70;98.20;;;;;;4962201;28;20493;-79
2021/09/16 00:40:42;;;;;;;1.50;1.00;;;16.60;98.20;;;;;;4943515;28;20475;-79
2021/09/16 00:43:09;;;;;;;1.53;1.00;;;16.50;98.20;;;;;;4953291;28;20830;-79
2021/09/16 00:45:36;;;;;;;1.53;1.00;;;16.40;98.20;;;;;;4952298;28;20545;-79
2021/09/16 00:48:02;;;;;;;1.50;1.00;;;16.40;98.20;;;;;;4957578;28;20495;-79
2021/09/16 00:50:29;;;;;;;1.57;1.00;;;16.30;98.20;;;;;;4950701;28;20475;-79
2021/09/16 00:52:56;;;;;;;1.53;1.00;;;16.30;98.20;;;;;;4958691;28;20482;-79
2021/09/16 00:55:26;;;;;;;1.53;1.00;;;16.20;98.20;;;;;;4940942;28;20502;-79
2021/09/16 00:57:55;;;;;;;1.53;1.00;;;16.20;98.20;;;;;;4954042;28;20490;-80
2021/09/16 01:00:23;;;;;;;1.50;0.97;;;16.20;98.20;;;;;;4945078;28;20470;-81
2021/09/16 01:02:50;;;;;;;1.50;1.00;;;16.20;98.20;;;;;;4949717;28;20859;-81
2021/09/16 01:05:17;;;;;;;1.57;1.00;;;16.10;98.20;;;;;;4953573;28;21212;-82
2021/09/16 01:07:44;;;;;;;1.57;1.00;;;16.10;98.20;;;;;;4960439;28;20495;-80
2021/09/16 01:10:12;;;;;;;1.53;1.00;;;16.10;98.20;;;;;;4949017;28;20466;-79
2021/09/16 01:12:43;;;;;;;1.50;1.00;;;16.10;98.20;;;;;;4948885;28;20478;-80
2021/09/16 01:15:11;;;;;;;1.53;0.90;;;16.00;98.20;;;;;;4955837;28;20481;-80
2021/09/16 01:17:38;;;;;;;1.53;1.00;;;15.90;98.20;;;;;;4950831;28;20529;-80
2021/09/16 01:20:06;;;;;;;1.53;0.97;;;15.90;98.20;;;;;;4959742;28;20755;-80
2021/09/16 01:22:34;;;;;;;1.53;1.00;;;15.90;98.20;;;;;;4945305;28;20490;-79
2021/09/16 01:25:01;;;;;;;1.53;1.00;;;15.90;98.20;;;;;;4956822;28;20486;-79
2021/09/16 01:27:28;;;;;;;1.50;1.00;;;15.80;98.20;;;;;;4942577;28;20567;-80
2021/09/16 01:29:55;;;;;;;1.50;1.00;;;15.80;98.20;;;;;;4948715;28;20474;-80
2021/09/16 01:32:22;;;;;;;1.53;1.00;;;15.80;98.20;;;;;;4947190;28;21011;-80
2021/09/16 01:34:49;;;;;;;1.53;1.00;;;15.70;98.20;;;;;;4953241;28;20564;-80
2021/09/16 01:37:16;;;;;;;1.60;1.10;;;15.70;98.20;;;;;;4951813;28;20497;-80
2021/09/16 01:39:44;;;;;;;1.50;0.90;;;15.70;98.20;;;;;;4951512;28;20478;-80
2021/09/16 01:42:10;;;;;;;1.57;1.00;;;15.60;98.20;;;;;;4943694;28;20486;-80
2021/09/16 01:44:38;;;;;;;1.50;1.00;;;15.60;98.20;;;;;;4952299;28;20474;-80
2021/09/16 01:47:06;;;;;;;1.57;1.00;;;15.50;98.20;;;;;;4941928;28;20490;-80
2021/09/16 01:49:33;;;;;;;1.50;1.00;;;15.50;98.20;;;;;;4955815;28;20463;-80
2021/09/16 01:52:00;;;;;;;1.50;1.00;;;15.50;98.20;;;;;;4945846;28;20482;-80
2021/09/16 01:54:27;;;;;;;1.53;1.00;;;15.50;98.20;;;;;;4966507;28;20471;-80
2021/09/16 01:56:55;;;;;;;1.57;1.00;;;15.40;98.20;;;;;;4938815;28;20496;-80
2021/09/16 01:59:22;;;;;;;1.57;1.07;;;15.40;98.20;;;;;;4953428;28;20554;-81
2021/09/16 02:01:49;;;;;;;1.57;1.00;;;15.30;98.20;;;;;;4932287;28;21041;-80
2021/09/16 02:04:15;;;;;;;1.60;1.00;;;15.30;98.20;;;;;;4948518;28;20474;-80
2021/09/16 02:06:42;;;;;;;1.50;1.00;;;15.30;98.20;;;;;;4941616;28;20487;-80
2021/09/16 02:09:09;;;;;;;1.57;1.00;;;15.30;98.20;;;;;;4972336;28;20471;-80
2021/09/16 02:11:36;;;;;;;1.57;0.90;;;15.20;98.20;;;;;;4948052;28;20561;-80
2021/09/16 02:14:04;;;;;;;1.60;1.00;;;15.20;98.20;;;;;;4961328;28;20467;-79
2021/09/16 02:16:31;;;;;;;1.53;1.00;;;15.20;98.20;;;;;;4943834;28;20491;-80
2021/09/16 02:18:58;;;;;;;1.57;1.03;;;15.10;98.20;;;;;;4960716;28;20479;-80
2021/09/16 02:21:24;;;;;;;1.53;1.00;;;15.10;98.20;;;;;;4939336;28;20561;-80
2021/09/16 02:23:51;;;;;;;1.57;1.00;;;15.10;98.20;;;;;;4961975;28;20467;-80
2021/09/16 02:26:18;;;;;;;1.57;1.00;;;15.10;98.20;;;;;;4948449;28;20593;-80
2021/09/16 02:28:45;;;;;;;1.50;1.00;;;15.00;98.20;;;;;;4954454;28;20537;-80
2021/09/16 02:31:13;;;;;;;1.57;1.00;;;15.00;98.20;;;;;;4949099;28;20482;-80
2021/09/16 02:33:40;;;;;;;1.60;1.00;;;15.00;98.20;;;;;;4971259;28;20467;-80
2021/09/16 02:36:07;;;;;;;1.53;1.00;;;15.00;98.20;;;;;;4940717;28;20585;-80
2021/09/16 02:38:34;;;;;;;1.53;1.00;;;15.00;98.20;;;;;;4967109;28;20549;-80
2021/09/16 02:41:01;;;;;;;1.57;1.00;;;15.00;98.20;;;;;;4940215;28;21014;-80
2021/09/16 02:43:28;;;;;;;1.57;0.90;;;15.00;98.20;;;;;;4963690;28;20468;-80
2021/09/16 02:45:54;;;;;;;1.57;1.00;;;15.00;98.20;;;;;;4943263;28;20861;-80
2021/09/16 02:48:22;;;;;;;1.57;1.10;;;15.00;98.20;;;;;;4967287;28;20504;-80
2021/09/16 02:50:49;;;;;;;1.50;1.00;;;15.00;98.20;;;;;;4942606;28;20764;-80
2021/09/16 02:53:16;;;;;;;1.53;0.90;;;15.00;98.20;;;;;;4972910;28;20466;-80
2021/09/16 02:55:43;;;;;;;1.50;1.00;;;15.00;98.20;;;;;;4953573;28;20828;-80
2021/09/16 02:58:10;;;;;;;1.50;1.00;;;15.00;98.20;;;;;;4937534;28;21014;-80
2021/09/16 03:00:37;;;;;;;1.60;1.10;;;15.10;98.20;;;;;;4960907;28;20474;-80
2021/09/16 03:03:03;;;;;;;1.50;1.00;;;15.10;98.20;;;;;;4962488;28;20648;-81
2021/09/16 03:05:32;;;;;;;1.57;1.00;;;15.10;98.20;;;;;;4958501;28;20510;-80
2021/09/16 03:07:59;;;;;;;1.57;1.00;;;15.10;98.20;;;;;;4950918;28;20559;-80
2021/09/16 03:10:25;;;;;;;1.53;1.00;;;15.00;98.20;;;;;;4949345;28;20569;-80
2021/09/16 03:12:52;;;;;;;1.57;1.00;;;15.00;98.20;;;;;;4959658;28;20501;-80
2021/09/16 03:15:20;;;;;;;1.53;0.90;;;15.00;98.20;;;;;;4960566;28;20882;-80
2021/09/16 03:17:47;;;;;;;1.53;1.00;;;15.00;98.20;;;;;;4967235;28;20492;-80
2021/09/16 03:20:14;;;;;;;1.57;1.00;;;15.00;98.20;;;;;;4954287;29;20471;-80
2021/09/16 03:22:43;;;;;;;1.60;1.00;;;14.90;98.20;;;;;;4960674;28;20481;-80
2021/09/16 03:25:11;;;;;;;1.50;1.00;;;14.90;98.20;;;;;;4958831;28;20469;-80
2021/09/16 03:27:38;;;;;;;1.53;1.00;;;14.90;98.20;;;;;;4956921;28;20492;-80
2021/09/16 03:30:06;;;;;;;1.50;1.00;;;14.80;98.20;;;;;;4957806;28;20467;-80
2021/09/16 03:32:33;;;;;;;1.57;0.97;;;14.80;98.20;;;;;;4959222;28;20757;-80
2021/09/16 03:35:00;;;;;;;1.50;1.00;;;14.80;98.20;;;;;;4952512;28;20517;-80
2021/09/16 03:37:26;;;;;;;1.53;1.00;;;14.80;98.20;;;;;;4956844;28;20477;-80
2021/09/16 03:39:55;;;;;;;1.50;1.00;;;14.80;98.20;;;;;;4964262;28;20839;-80
2021/09/16 03:42:22;;;;;;;1.60;1.10;;;14.80;98.20;;;;;;4948880;28;20470;-80
2021/09/16 03:44:49;;;;;;;1.53;1.00;;;14.80;98.20;;;;;;4957255;28;20464;-80
2021/09/16 03:47:16;;;;;;;1.53;0.90;;;14.80;98.20;;;;;;4957804;28;20488;-80
2021/09/16 03:49:43;;;;;;;1.60;1.10;;;14.80;98.20;;;;;;4954652;28;20465;-80
2021/09/16 03:52:11;;;;;;;1.53;1.00;;;14.80;98.20;;;;;;4955620;28;20576;-81
2021/09/16 03:54:39;;;;;;;1.60;1.10;;;14.80;98.20;;;;;;4967908;28;20965;-80
2021/09/16 03:57:07;;;;;;;1.57;1.00;;;14.90;98.20;;;;;;4953108;28;20520;-80
2021/09/16 03:59:35;;;;;;;1.57;1.00;;;14.90;98.20;;;;;;4958012;28;20558;-82
2021/09/16 04:02:03;;;;;;;1.50;1.00;;;14.90;98.20;;;;;;4947100;28;20525;-81
2021/09/16 04:04:29;;;;;;;1.50;0.90;;;14.90;98.20;;;;;;4954575;28;20929;-81
2021/09/16 04:06:56;;;;;;;1.60;1.00;;;14.90;98.20;;;;;;4929672;28;20491;-81
2021/09/16 04:09:23;;;;;;;1.57;1.00;;;14.90;98.20;;;;;;4944971;28;20471;-81
2021/09/16 04:11:50;;;;;;;1.57;1.00;;;15.00;98.20;;;;;;4943177;28;20857;-81
2021/09/16 04:14:18;;;;;;;1.53;1.00;;;15.00;98.20;;;;;;4953663;28;20473;-81
2021/09/16 04:16:45;;;;;;;1.53;1.00;;;15.00;98.20;;;;;;4942251;28;20504;-81
2021/09/16 04:19:12;;;;;;;1.57;1.00;;;15.00;98.20;;;;;;4954687;28;20481;-81
2021/09/16 04:21:39;;;;;;;1.57;1.00;;;15.00;98.20;;;;;;4945646;28;20493;-82
2021/09/16 04:24:06;;;;;;;1.53;1.10;;;15.00;98.20;;;;;;4953459;28;20471;-81
2021/09/16 04:26:33;;;;;;;1.53;1.00;;;15.00;98.20;;;;;;4944544;28;20850;-82
2021/09/16 04:29:01;;;;;;;1.50;1.00;;;15.00;98.20;;;;;;4951718;28;20786;-82
2021/09/16 04:31:29;;;;;;;1.53;1.00;;;14.90;98.20;;;;;;4940168;28;20477;-81
2021/09/16 04:33:56;;;;;;;1.50;1.00;;;14.90;98.20;;;;;;4953976;28;20860;-82
2021/09/16 04:36:23;;;;;;;1.57;1.10;;;14.80;98.20;;;;;;4935005;28;20557;-81
2021/09/16 04:38:50;;;;;;;1.50;1.10;;;14.80;98.20;;;;;;4953352;28;20463;-81
2021/09/16 04:41:17;;;;;;;1.50;1.00;;;14.80;98.20;;;;;;4944446;28;20490;-81
2021/09/16 04:43:44;;;;;;;1.53;1.00;;;14.80;98.20;;;;;;4958138;28;20478;-82
2021/09/16 04:46:11;;;;;;;1.57;1.00;;;14.80;98.20;;;;;;4946933;28;21095;-81
2021/09/16 04:48:39;;;;;;;1.60;1.00;;;14.70;98.20;;;;;;4964386;28;20489;-82
2021/09/16 04:51:06;;;;;;;1.50;1.00;;;14.70;98.20;;;;;;4932531;28;20519;-82
2021/09/16 04:53:33;;;;;;;1.50;1.00;;;14.70;98.20;;;;;;4966158;28;20458;-81
2021/09/16 04:56:00;;;;;;;1.57;1.00;;;14.70;98.20;;;;;;4944873;28;20548;-81
2021/09/16 04:58:28;;;;;;;1.60;1.00;;;14.70;98.20;;;;;;4952756;28;20581;-81
2021/09/16 05:01:01;;;;;;;1.53;1.00;;;14.70;98.20;;;;;;4946278;28;20982;-81
2021/09/16 05:03:31;;;;;;;1.53;1.00;;;14.60;98.20;;;;;;4955308;28;20468;-81
2021/09/16 05:06:03;;;;;;;1.50;1.00;;;14.60;98.20;;;;;;4948260;28;20802;-80
2021/09/16 05:08:46;;;;;;;1.53;1.00;;;14.60;98.20;;;;;;4965477;28;20839;-80
2021/09/16 05:11:15;;;;;;;1.50;0.90;;;14.50;98.20;;;;;;4946240;28;20472;-81
2021/09/16 05:13:47;;;;;;;1.53;1.00;;;14.50;98.20;;;;;;4972399;28;20474;-80
2021/09/16 05:16:20;;;;;;;1.50;0.97;;;14.50;98.20;;;;;;4950325;28;20508;-81
2021/09/16 05:18:49;;;;;;;1.60;1.00;;;14.50;98.20;;;;;;4966203;28;20481;-80
2021/09/16 05:21:18;;;;;;;1.53;1.00;;;14.50;98.20;;;;;;4956234;28;20920;-80
2021/09/16 05:23:46;;;;;;;1.60;1.20;;;14.50;98.20;;;;;;4960734;28;20474;-80
2021/09/16 05:26:14;;;;;;;1.60;1.10;;;14.50;98.20;;;;;;4948259;28;20745;-81
2021/09/16 05:28:43;;;;;;;1.57;1.07;;;14.50;98.20;;;;;;4970320;28;20514;-79
2021/09/16 05:31:16;;;;;;;1.57;1.00;;;14.40;98.20;;;;;;4946882;28;20497;-79
2021/09/16 05:33:43;;;;;;;1.57;1.10;;;14.40;98.20;;;;;;4974324;28;20466;-79
2021/09/16 05:36:15;;;;;;;1.57;1.03;;;14.40;98.20;;;;;;4956669;28;20570;-78
2021/09/16 05:38:44;;;;;;;1.53;1.00;;;14.40;98.20;;;;;;4968457;28;20526;-79
2021/09/16 05:41:11;;;;;;;1.60;1.00;;;14.40;98.20;;;;;;4948936;28;20534;-79
2021/09/16 05:47:09;;;;;;;1.53;1.00;;;14.50;98.20;;;;;;4880397;29;20483;-80
2021/09/16 05:49:36;;;;;;;1.53;1.10;;;14.60;98.20;;;;;;4950807;28;20471;-79
2021/09/16 05:52:04;;;;;;;1.57;1.00;;;14.60;98.20;;;;;;4952378;28;20508;-79
2021/09/16 05:54:32;;;;;;;1.53;1.00;;;14.70;98.20;;;;;;4962785;28;20499;-79
2021/09/16 05:56:59;;;;;;;1.53;1.00;;;14.80;98.20;;;;;;4944535;28;20520;-79
2021/09/16 05:59:26;;;;;;;1.53;1.00;;;14.80;98.20;;;;;;4958017;28;20486;-79
2021/09/16 06:01:53;;;;;;;1.57;1.00;;;14.90;98.20;;;;;;4941350;28;20935;-79
2021/09/16 06:04:20;;;;;;;1.50;1.00;;;15.00;98.20;;;;;;4955947;28;20463;-79
2021/09/16 06:06:49;;;;;;;1.57;1.00;;;15.00;98.20;;;;;;4960133;28;20829;-79
2021/09/16 06:09:16;;;;;;;1.50;1.00;;;15.00;98.20;;;;;;4967607;28;20874;-79
2021/09/16 06:11:56;;;;;;;1.57;1.00;;;15.10;98.20;;;;;;4957218;28;20477;-80
2021/09/16 06:14:34;;;;;;;1.50;1.07;;;15.10;98.20;;;;;;4956890;28;20554;-80
2021/09/16 06:17:10;;;;;;;1.53;1.00;;;15.20;98.20;;;;;;4943368;28;20487;-80
2021/09/16 06:19:37;;;;;;;1.50;1.00;;;15.20;98.20;;;;;;4950727;28;20472;-78
2021/09/16 06:22:04;;;;;;;1.57;1.00;;;15.30;98.20;;;;;;4952473;28;20912;-80
2021/09/16 06:24:31;;;;;;;1.60;1.30;;;15.30;98.20;;;;;;4955393;28;20857;-79
2021/09/16 06:27:00;;;;;;;1.53;1.00;;;15.30;98.20;;;;;;4944088;28;20574;-79
2021/09/16 06:29:26;;;;;;;1.53;0.90;;;15.40;98.20;;;;;;4963650;28;20467;-80
2021/09/16 06:31:53;;;;;;;1.50;1.07;;;15.40;98.20;;;;;;4954440;28;20474;-80
2021/09/16 06:34:20;;;;;;;1.50;1.00;;;15.40;98.20;;;;;;4963364;28;20806;-79
2021/09/16 06:36:47;;;;;;;1.53;1.00;;;15.50;98.20;;;;;;4948391;28;20581;-80
2021/09/16 06:39:14;;;;;;;1.53;0.97;;;15.50;98.20;;;;;;4966161;28;20513;-80
2021/09/16 06:41:41;;;;;;;1.57;1.00;;;15.50;98.20;;;;;;4943530;28;20485;-79
2021/09/16 06:44:09;;;;;;;1.50;1.00;;;15.60;98.20;;;;;;4956738;28;20477;-80
2021/09/16 06:46:36;;;;;;;1.57;1.00;;;15.60;98.20;;;;;;4942481;28;20591;-80
2021/09/16 06:49:03;;;;;;;1.57;1.00;;;15.70;98.20;;;;;;4961453;28;20566;-80
2021/09/16 06:51:30;;;;;;;1.60;1.10;;;15.70;98.20;;;;;;4944244;28;20508;-79
2021/09/16 06:53:56;;;;;;;1.60;1.10;;;15.80;98.20;;;;;;4966294;28;20499;-79
2021/09/16 06:56:23;;;;;;;1.53;1.00;;;15.90;98.20;;;;;;4940739;28;20513;-80
2021/09/16 06:58:50;;;;;;;1.50;1.00;;;16.00;98.20;;;;;;4952053;28;20549;-79
2021/09/16 07:01:19;;;;;;;1.53;1.00;;;16.00;98.20;;;;;;4944207;28;20529;-80
2021/09/16 07:03:46;;;;;;;1.60;1.07;;;16.10;98.20;;;;;;4961165;28;20465;-80
2021/09/16 07:06:13;;;;;;;1.53;1.00;;;16.10;98.20;;;;;;4943482;28;20486;-79
2021/09/16 07:08:40;;;;;;;1.57;1.10;;;16.20;98.20;;;;;;4952347;28;20526;-79
2021/09/16 07:11:07;;;;;;;1.57;1.00;;;16.20;98.20;;;;;;4955233;28;20488;-79
2021/09/16 07:13:34;;;;;;;1.60;1.10;;;16.20;98.20;;;;;;4965653;28;20962;-80
2021/09/16 07:16:01;;;;;;;1.57;1.00;;;16.30;98.20;;;;;;4934747;28;20472;-79
2021/09/16 07:18:33;;;;;;;1.57;1.00;;;16.30;98.20;;;;;;4958252;28;20491;-79
2021/09/16 07:21:00;;;;;;;1.57;0.90;;;16.30;98.20;;;;;;4945052;28;20471;-79
2021/09/16 07:23:27;;;;;;;1.50;1.00;;;16.40;98.20;;;;;;4963274;28;20477;-79
2021/09/16 07:25:54;;;;;;;1.60;1.10;;;16.40;98.20;;;;;;4941064;28;20549;-79
2021/09/16 07:28:21;;;;;;;1.53;0.90;;;16.50;98.20;;;;;;4966293;28;20542;-80
2021/09/16 07:30:48;;;;;;;1.53;0.93;;;16.60;98.20;;;;;;4938317;28;21049;-79
2021/09/16 07:33:16;;;;;;;1.53;1.00;;;16.60;98.20;;;;;;4960636;28;21061;-79
2021/09/16 07:35:44;;;;;;;1.50;0.90;;;16.60;98.20;;;;;;4947819;28;20665;-80
2021/09/16 07:38:11;;;;;;;1.50;1.00;;;16.70;98.20;;;;;;5069598;23;20497;-79
2021/09/16 07:40:38;;;;;;;1.57;0.93;;;16.70;98.20;;;;;;4986286;28;20890;-79
2021/09/16 07:43:05;;;;;;;1.60;1.10;;;16.80;98.20;;;;;;4963821;28;20485;-81
2021/09/16 07:45:31;;;;;;;1.60;1.10;;;16.90;98.20;;;;;;4988189;28;20476;-81
2021/09/16 07:47:58;;;;;;;1.50;1.00;;;16.90;98.20;;;;;;4953320;28;20490;-81
2021/09/16 07:50:25;;;;;;;1.57;1.00;;;17.00;98.20;;;;;;4963664;28;20474;-80
2021/09/16 07:52:53;;;;;;;1.53;1.00;;;17.10;98.20;;;;;;4953043;28;20486;-80
2021/09/16 07:55:20;;;;;;;1.60;1.00;;;17.10;98.20;;;;;;4962792;28;20461;-80
2021/09/16 07:57:47;;;;;;;1.57;0.97;;;17.20;98.20;;;;;;4953293;28;20487;-80
2021/09/16 08:00:14;;;;;;;1.50;1.00;;;17.30;98.20;;;;;;4966943;28;20478;-80
2021/09/16 08:02:45;;;;;;;1.53;0.97;;;17.30;98.20;;;;;;4951841;28;20481;-80
2021/09/16 08:05:12;;;;;;;1.60;1.10;;;17.50;98.20;;;;;;4967013;28;20469;-79
2021/09/16 08:07:39;;;;;;;1.50;1.00;;;17.60;98.20;;;;;;4958954;28;20493;-79
2021/09/16 08:10:09;;;;;;;1.57;1.00;;;17.70;98.20;;;;;;4967969;28;20466;-80
2021/09/16 08:12:36;;;;;;;1.60;1.00;;;17.80;98.20;;;;;;4954177;28;20492;-80
2021/09/16 08:15:03;;;;;;;1.57;1.00;;;17.90;98.20;;;;;;4965228;28;20466;-82
2021/09/16 08:17:30;;;;;;;1.53;0.90;;;18.00;98.20;;;;;;4958700;28;20484;-82
2021/09/16 08:19:56;;;;;;;1.53;1.00;;;18.10;98.20;;;;;;4975322;28;20472;-82
2021/09/16 08:22:23;;;;;;;1.57;1.00;;;18.20;98.20;;;;;;4947753;28;20487;-82
2021/09/16 08:24:50;;;;;;;1.53;1.00;;;18.30;98.20;;;;;;4969969;28;20465;-81
2021/09/16 08:27:18;;;;;;;1.53;0.97;;;18.30;98.20;;;;;;4961409;28;21017;-83
2021/09/16 08:29:45;;;;;;;1.50;0.97;;;18.40;98.20;;;;;;4967105;28;20533;-82
2021/09/16 08:32:12;;;;;;;1.50;1.00;;;18.50;98.20;;;;;;4947344;28;20475;-82
2021/09/16 08:34:40;;;;;;;1.57;0.90;;;18.60;98.20;;;;;;4965905;28;20472;-82
2021/09/16 08:37:07;;;;;;;1.53;1.00;;;18.70;98.20;;;;;;4951913;28;21019;-82
2021/09/16 08:39:33;;;;;;;1.53;0.90;;;18.70;98.20;;;;;;4959357;28;20471;-83
2021/09/16 08:42:00;;;;;;;1.50;0.90;;;18.80;98.20;;;;;;4953148;28;20490;-83
2021/09/16 08:44:29;;;;;;;1.50;1.00;;;18.80;98.20;;;;;;4969713;28;20996;-82
2021/09/16 08:46:55;;;;;;;1.53;0.90;;;18.90;98.20;;;;;;4947110;28;20508;-83
2021/09/16 08:49:22;;;;;;;1.57;1.00;;;19.00;98.20;;;;;;4958862;28;20470;-82
2021/09/16 08:51:49;;;;;;;1.50;0.90;;;19.10;98.20;;;;;;4953921;28;20544;-82
2021/09/16 08:54:17;;;;;;;1.50;0.90;;;19.10;98.20;;;;;;4963509;28;20497;-82
2021/09/16 08:56:46;;;;;;;1.60;1.00;;;19.10;98.20;;;;;;4961765;28;20490;-81
2021/09/16 08:59:13;;;;;;;1.53;0.90;;;19.10;98.20;;;;;;4956810;28;21186;-83
2021/09/16 09:01:45;;;;;;;1.50;0.90;;;19.20;98.20;;;;;;4963685;28;20504;-82
2021/09/16 09:04:12;;;;;;;1.53;1.00;;;19.30;98.20;;;;;;4956201;28;20493;-82
2021/09/16 09:06:42;;;;;;;1.57;0.90;;;19.40;98.20;;;;;;4963346;28;20560;-82
2021/09/16 09:09:11;;;;;;;1.53;0.93;;;19.50;98.20;;;;;;4967006;28;20470;-81
2021/09/16 09:11:51;;;;;;;1.50;0.90;;;19.60;98.20;;;;;;4959155;28;20851;-83
2021/09/16 09:14:20;;;;;;;1.50;0.90;;;19.70;97.40;;;;;;4975307;28;20477;-82
2021/09/16 09:16:48;;;;;;;1.60;1.00;;;19.80;97.20;;;;;;4950459;28;20490;-81
2021/09/16 09:19:16;;;;;;;1.50;0.90;;;19.90;97.30;;;;;;4961079;28;20474;-82
2021/09/16 09:21:44;;;;;;;1.53;0.90;;;20.00;97.40;;;;;;4957138;28;20587;-82
2021/09/16 09:24:11;;;;;;;1.50;1.00;;;20.10;97.20;;;;;;4960036;28;20470;-82
2021/09/16 09:26:40;;;;;;;1.50;0.90;;;20.20;96.80;;;;;;4953366;28;20897;-83
2021/09/16 09:29:15;;;;;;;1.57;0.90;;;20.40;96.90;;;;;;4968487;28;20479;-82
2021/09/16 09:31:52;;;;;;;1.50;0.90;;;20.60;96.40;;;;;;4958957;28;20485;-81
2021/09/16 09:34:26;;;;;;;1.50;0.90;;;20.70;95.60;;;;;;4961286;28;20484;-82
2021/09/16 09:36:55;;;;;;;1.57;0.90;;;20.70;96.10;;;;;;4955126;28;20498;-83
2021/09/16 09:39:26;;;;;;;1.57;0.90;;;20.70;95.30;;;;;;4967852;28;20465;-83
2021/09/16 09:42:13;;;;;;;1.50;0.90;;;20.80;94.00;;;;;;4962455;28;20488;-82
2021/09/16 09:44:40;;;;;;;1.53;0.90;;;20.90;94.70;;;;;;4963746;28;20466;-82
2021/09/16 09:47:07;;;;;;;1.53;0.90;;;21.00;94.40;;;;;;4953156;28;20494;-82
2021/09/16 09:49:36;;;;;;;1.57;0.90;;;21.10;94.60;;;;;;4958004;28;20463;-81
2021/09/16 09:52:03;;;;;;;1.53;0.90;;;21.20;94.40;;;;;;4945290;28;20482;-81
2021/09/16 09:54:32;;;;;;;1.53;0.90;;;21.40;93.60;;;;;;4975632;28;20781;-81
2021/09/16 09:57:12;;;;;;;1.50;0.90;;;21.50;93.50;;;;;;4949167;28;20502;-82
2021/09/16 10:00:10;;;;;;;1.53;1.00;;;21.60;92.90;;;;;;4972451;28;20496;-81
2021/09/16 10:02:52;;;;;;;1.53;0.90;;;21.40;91.50;;;;;;4955819;28;20513;-81
2021/09/16 10:05:22;;;;;;;1.50;0.90;;;21.30;92.20;;;;;;4977321;28;20470;-81
2021/09/16 10:07:50;;;;;;;1.50;1.00;;;21.40;93.90;;;;;;4945992;28;20604;-81
2021/09/16 10:10:18;;;;;;;1.50;0.90;;;21.40;92.20;;;;;;4975754;28;20926;-82
2021/09/16 10:12:47;;;;;;;1.57;0.90;;;21.40;92.00;;;;;;4972846;28;20536;-81
2021/09/16 10:15:16;;;;;;;1.50;0.90;;;21.30;91.00;;;;;;4982844;28;20465;-80
2021/09/16 10:17:43;;;;;;;1.50;0.90;;;21.30;90.60;;;;;;4982471;28;20492;-81
2021/09/16 10:20:12;;;;;;;1.50;0.90;;;21.40;91.40;;;;;;4976510;28;20491;-80
2021/09/16 10:22:41;;;;;;;1.53;0.90;;;21.60;90.80;;;;;;4970373;28;20469;-81
2021/09/16 10:25:09;;;;;;;1.53;0.90;;;21.80;90.30;;;;;;4994194;28;20473;-81
2021/09/16 10:27:39;;;;;;;1.60;0.90;;;22.00;88.60;;;;;;4981285;28;20993;-81
2021/09/16 10:30:31;;;;;;;1.53;0.90;;;22.20;90.40;;;;;;4980099;28;20465;-81
2021/09/16 10:33:06;;;;;;;1.53;0.90;;;22.20;89.00;;;;;;4959132;28;20498;-81
2021/09/16 10:35:35;;;;;;;1.50;0.90;;;22.40;88.80;;;;;;4977602;28;20474;-81
2021/09/16 10:38:28;;;;;;;1.53;0.90;;;22.50;88.50;;;;;;4967633;28;21112;-81
2021/09/16 10:41:13;;;;;;;1.50;0.90;;;22.70;88.30;;;;;;4974400;28;20477;-80
2021/09/16 10:43:40;;;;;;;1.57;0.90;;;22.70;84.90;;;;;;4980732;28;20473;-82
2021/09/16 10:46:38;;;;;;;1.50;0.90;;;22.60;85.70;;;;;;4988924;28;20500;-81
2021/09/16 10:49:33;;;;;;;1.50;0.90;;;22.50;86.00;;;;;;4921055;29;20504;-81
2021/09/16 10:52:03;;;;;;;1.90;1.57;;;22.30;85.30;;;;;;4985459;28;20479;-81
2021/09/16 10:54:43;;;;;;;1.50;0.90;;;22.10;86.30;;;;;;4957751;29;20506;-82
2021/09/16 10:57:11;;;;;;;1.50;0.90;;;22.00;86.30;;;;;;4978840;28;21067;-81
2021/09/16 11:00:18;;;;;;;1.50;0.90;;;22.00;87.70;;;;;;4986576;28;20469;-81
2021/09/16 11:03:13;;;;;;;1.50;0.90;;;22.00;87.40;;;;;;4971091;28;20892;-81
2021/09/16 11:05:53;;;;;;;1.50;0.90;;;21.90;87.60;;;;;;4983842;28;20888;-81
2021/09/16 11:08:22;;;;;;;1.50;0.90;;;21.90;88.20;;;;;;4965439;28;20534;-81
2021/09/16 11:10:57;;;;;;;1.50;0.90;;;21.90;88.10;;;;;;4975476;28;20474;-81
2021/09/16 11:13:37;;;;;;;1.50;0.90;;;22.00;88.00;;;;;;4974887;28;20472;-81
2021/09/16 11:16:05;;;;;;;1.53;0.90;;;21.90;87.10;;;;;;4981575;28;20472;-80
2021/09/16 11:18:32;;;;;;;1.50;0.90;;;21.90;87.20;;;;;;4974366;28;20485;-81
2021/09/16 11:21:01;;;;;;;1.50;0.90;;;22.00;86.60;;;;;;4974808;28;20466;-81
2021/09/16 11:23:37;;;;;;;1.50;0.90;;;22.20;87.90;;;;;;4973473;28;20473;-81
2021/09/16 11:26:06;;;;;;;1.50;0.90;;;22.40;86.90;;;;;;4973759;28;20933;-82
2021/09/16 11:28:33;;;;;;;1.50;0.90;;;22.50;86.50;;;;;;4978886;28;20496;-81
2021/09/16 11:31:00;;;;;;;1.50;0.90;;;22.50;86.60;;;;;;4964396;28;20521;-82
2021/09/16 11:33:26;;;;;;;1.50;0.90;;;22.30;86.10;;;;;;4982914;28;20564;-82
2021/09/16 11:35:54;;;;;;;1.50;0.90;;;22.20;86.30;;;;;;4973654;28;20485;-81
2021/09/16 11:38:20;;;;;;;1.50;0.90;;;22.20;87.20;;;;;;4972077;28;20500;-81
2021/09/16 11:40:49;;;;;;;1.50;0.90;;;22.20;86.20;;;;;;4973678;28;20466;-81
2021/09/16 11:43:19;;;;;;;1.50;0.90;;;22.20;86.30;;;;;;4973408;28;20555;-81
2021/09/16 11:45:47;;;;;;;1.50;0.90;;;22.30;86.30;;;;;;4976974;28;20551;-80
2021/09/16 11:48:16;;;;;;;1.50;0.90;;;22.20;86.30;;;;;;4967561;28;20494;-81
2021/09/16 11:50:45;;;;;;;1.50;0.90;;;22.20;87.60;;;;;;4978171;28;20469;-80
2021/09/16 11:53:14;;;;;;;1.50;0.90;;;22.00;86.20;;;;;;4970231;28;20470;-81
2021/09/16 11:55:42;;;;;;;1.50;0.90;;;22.00;87.20;;;;;;4972552;28;20501;-80
2021/09/16 11:58:12;;;;;;;1.50;0.90;;;21.90;86.90;;;;;;4970272;28;20494;-81
2021/09/16 12:00:47;;;;;;;1.50;0.90;;;21.90;87.60;;;;;;4982739;28;20473;-81
2021/09/16 12:03:18;;;;;;;1.50;0.90;;;22.00;88.50;;;;;;4954157;28;20485;-81
2021/09/16 12:05:47;;;;;;;1.50;0.90;;;22.10;86.60;;;;;;4953233;28;20486;-81
2021/09/16 12:08:20;;;;;;;1.50;0.90;;;22.10;86.80;;;;;;4964527;28;20879;-81
2021/09/16 12:10:51;;;;;;;1.50;0.90;;;22.00;86.80;;;;;;4973168;28;20508;-81
2021/09/16 12:13:20;;;;;;;1.50;0.90;;;22.00;87.40;;;;;;4972124;28;20466;-80
2021/09/16 12:15:51;;;;;;;1.50;0.90;;;22.00;87.80;;;;;;4972097;28;20493;-81
2021/09/16 12:18:19;;;;;;;1.50;0.90;;;22.10;87.40;;;;;;4977608;28;20710;-81
2021/09/16 12:20:46;;;;;;;1.50;0.90;;;22.10;87.30;;;;;;4978613;28;20473;-80
2021/09/16 12:23:15;;;;;;;1.50;0.97;;;22.10;87.40;;;;;;4981926;28;20486;-81
2021/09/16 12:26:00;;;;;;;1.50;0.90;;;22.10;88.10;;;;;;4970729;28;20589;-81
2021/09/16 12:28:28;;;;;;;1.50;0.90;;;22.20;88.30;;;;;;4985002;28;20886;-80
2021/09/16 12:31:06;;;;;;;1.50;0.90;;;22.20;88.10;;;;;;4977905;28;20465;-81
2021/09/16 12:33:36;;;;;;;1.47;0.90;;;22.30;87.60;;;;;;4972831;28;20469;-80
2021/09/16 12:36:18;;;;;;;1.50;0.90;;;22.30;87.30;;;;;;4977013;28;20468;-80
2021/09/16 12:38:48;;;;;;;1.50;0.90;;;22.40;87.80;;;;;;4969661;28;20505;-80
2021/09/16 12:41:32;;;;;;;1.50;0.90;;;22.50;87.40;;;;;;4967808;28;20517;-80
2021/09/16 12:44:15;;;;;;;1.50;0.90;;;22.50;87.90;;;;;;4977777;28;20473;-80
2021/09/16 12:46:46;;;;;;;1.50;0.90;;;22.50;87.40;;;;;;4979328;28;20473;-80
2021/09/16 12:49:34;;;;;;;1.50;0.90;;;22.50;86.60;;;;;;4991451;28;20484;-80
2021/09/16 12:52:05;;;;;;;1.50;0.90;;;22.70;86.90;;;;;;4974931;28;20480;-80
2021/09/16 12:54:33;;;;;;;1.57;0.90;;;23.00;86.10;;;;;;4971255;28;20612;-81
2021/09/16 12:57:02;;;;;;;1.50;0.90;;;23.30;85.50;;;;;;4965151;28;20591;-81
2021/09/16 12:59:29;;;;;;;1.53;0.90;;;23.60;85.40;;;;;;4971327;28;20454;-81
2021/09/16 13:02:15;;;;;;;1.50;0.90;;;23.80;84.40;;;;;;4972238;28;20462;-81